Aviation Digital Data Service (ADDS)

Output produced by METARs form (0856 UTC 23 July 2019)
found at http://www.aviationweather.gov/metar/data/
 
METAR text: UHWW 230830Z 24006MPS 9999 NSC 27/22 Q1001 R25L/0///70 NOSIG RMK QFE749
Conditions at: UHWW (VLADIVOSTOK , RU) observed 0830 UTC 23 July 2019
Temperature: 27.0°C (81°F)
Dewpoint: 22.0°C (72°F) [RH = 74%]
Pressure (altimeter): 29.56 inches Hg (1001.0 mb)
Winds: from the WSW (240 degrees) at 14 MPH (12 knots; 6.2 m/s)
Visibility: 6 or more miles (10+ km)
Ceiling: at least 12,000 feet AGL
Clouds: sky clear below 12,000 feet AGL
Weather: no significant weather observed at this time

METAR text: UHWW 230800Z 25005MPS 9999 NSC 29/23 Q1000 R25L/0///70 NOSIG RMK QFE749
Conditions at: UHWW (VLADIVOSTOK , RU) observed 0800 UTC 23 July 2019
Temperature: 29.0°C (84°F)
Dewpoint: 23.0°C (73°F) [RH = 70%]
Pressure (altimeter): 29.53 inches Hg (1000.0 mb)
Winds: from the WSW (250 degrees) at 12 MPH (10 knots; 5.1 m/s)
Visibility: 6 or more miles (10+ km)
Ceiling: at least 12,000 feet AGL
Clouds: sky clear below 12,000 feet AGL
Weather: no significant weather observed at this time

METAR text: UHWW 230730Z 24005MPS 9999 NSC 29/23 Q1000 R25L/0///70 NOSIG RMK QFE749
Conditions at: UHWW (VLADIVOSTOK , RU) observed 0730 UTC 23 July 2019
Temperature: 29.0°C (84°F)
Dewpoint: 23.0°C (73°F) [RH = 70%]
Pressure (altimeter): 29.53 inches Hg (1000.0 mb)
Winds: from the WSW (240 degrees) at 12 MPH (10 knots; 5.1 m/s)
Visibility: 6 or more miles (10+ km)
Ceiling: at least 12,000 feet AGL
Clouds: sky clear below 12,000 feet AGL
Weather: no significant weather observed at this time

METAR text: UHWW 230700Z 23004MPS 9999 NSC 30/22 Q1000 R25L/0///70 NOSIG RMK QFE749
Conditions at: UHWW (VLADIVOSTOK , RU) observed 0700 UTC 23 July 2019
Temperature: 30.0°C (86°F)
Dewpoint: 22.0°C (72°F) [RH = 62%]
Pressure (altimeter): 29.53 inches Hg (1000.0 mb)
Winds: from the SW (230 degrees) at 9 MPH (8 knots; 4.1 m/s)
Visibility: 6 or more miles (10+ km)
Ceiling: at least 12,000 feet AGL
Clouds: sky clear below 12,000 feet AGL
Weather: no significant weather observed at this time

METAR text: UHWW 230630Z 24003MPS 9999 NSC 31/23 Q1000 R25L/0///70 NOSIG RMK QFE749
Conditions at: UHWW (VLADIVOSTOK , RU) observed 0630 UTC 23 July 2019
Temperature: 31.0°C (88°F)
Dewpoint: 23.0°C (73°F) [RH = 63%]
Pressure (altimeter): 29.53 inches Hg (1000.0 mb)
Winds: from the WSW (240 degrees) at 7 MPH (6 knots; 3.1 m/s)
Visibility: 6 or more miles (10+ km)
Ceiling: at least 12,000 feet AGL
Clouds: sky clear below 12,000 feet AGL
Weather: no significant weather observed at this time

METAR text: UHWW 230600Z 25003MPS 220V290 9999 NSC 31/23 Q1000 R25L/0///70 NOSIG RMK QFE749
Conditions at: UHWW (VLADIVOSTOK , RU) observed 0600 UTC 23 July 2019
Temperature: 31.0°C (88°F)
Dewpoint: 23.0°C (73°F) [RH = 63%]
Pressure (altimeter): 29.53 inches Hg (1000.0 mb)
Winds: from the WSW (250 degrees) at 7 MPH (6 knots; 3.1 m/s)
Visibility: 6 or more miles (10+ km)
Ceiling: at least 12,000 feet AGL
Clouds: sky clear below 12,000 feet AGL
Weather: no significant weather observed at this time

METAR text: UHWW 230530Z 25002MPS 220V290 9999 NSC 30/21 Q1000 R25L/0///70 NOSIG RMK QFE749
Conditions at: UHWW (VLADIVOSTOK , RU) observed 0530 UTC 23 July 2019
Temperature: 30.0°C (86°F)
Dewpoint: 21.0°C (70°F) [RH = 59%]
Pressure (altimeter): 29.53 inches Hg (1000.0 mb)
Winds: from the WSW (250 degrees) at 5 MPH (4 knots; 2.1 m/s)
Visibility: 6 or more miles (10+ km)
Ceiling: at least 12,000 feet AGL
Clouds: sky clear below 12,000 feet AGL
Weather: no significant weather observed at this time

METAR text: UHWW 230500Z 23002MPS 9999 NSC 30/22 Q1001 R25L/0///70 NOSIG RMK QFE749
Conditions at: UHWW (VLADIVOSTOK , RU) observed 0500 UTC 23 July 2019
Temperature: 30.0°C (86°F)
Dewpoint: 22.0°C (72°F) [RH = 62%]
Pressure (altimeter): 29.56 inches Hg (1001.0 mb)
Winds: from the SW (230 degrees) at 5 MPH (4 knots; 2.1 m/s)
Visibility: 6 or more miles (10+ km)
Ceiling: at least 12,000 feet AGL
Clouds: sky clear below 12,000 feet AGL
Weather: no significant weather observed at this time

METAR text: UHWW 230430Z 23002MPS 180V280 9999 NSC 30/22 Q1000 R25L/0///70 NOSIG RMK QFE749
Conditions at: UHWW (VLADIVOSTOK , RU) observed 0430 UTC 23 July 2019
Temperature: 30.0°C (86°F)
Dewpoint: 22.0°C (72°F) [RH = 62%]
Pressure (altimeter): 29.53 inches Hg (1000.0 mb)
Winds: from the SW (230 degrees) at 5 MPH (4 knots; 2.1 m/s)
Visibility: 6 or more miles (10+ km)
Ceiling: at least 12,000 feet AGL
Clouds: sky clear below 12,000 feet AGL
Weather: no significant weather observed at this time

METAR text: UHWW 230400Z VRB01MPS 9999 NSC 28/22 Q1001 R25L/0///70 NOSIG RMK QFE749
Conditions at: UHWW (VLADIVOSTOK , RU) observed 0400 UTC 23 July 2019
Temperature: 28.0°C (82°F)
Dewpoint: 22.0°C (72°F) [RH = 70%]
Pressure (altimeter): 29.56 inches Hg (1001.0 mb)
Winds: variable direction winds at 2 MPH (2 knots; 1.0 m/s)
Visibility: 6 or more miles (10+ km)
Ceiling: at least 12,000 feet AGL
Clouds: sky clear below 12,000 feet AGL
Weather: no significant weather observed at this time

METAR text: UHWW 230330Z VRB01MPS 9999 SCT026 28/22 Q1001 R25L/0///70 NOSIG RMK QFE749
Conditions at: UHWW (VLADIVOSTOK , RU) observed 0330 UTC 23 July 2019
Temperature: 28.0°C (82°F)
Dewpoint: 22.0°C (72°F) [RH = 70%]
Pressure (altimeter): 29.56 inches Hg (1001.0 mb)
Winds: variable direction winds at 2 MPH (2 knots; 1.0 m/s)
Visibility: 6 or more miles (10+ km)
Ceiling: at least 12,000 feet AGL
Clouds: scattered clouds at 2600 feet AGL
Weather: no significant weather observed at this time

METAR text: UHWW 230300Z 13002MPS 070V160 9999 BKN020 27/23 Q1001 R25L/0///70 NOSIG RMK QFE749
Conditions at: UHWW (VLADIVOSTOK , RU) observed 0300 UTC 23 July 2019
Temperature: 27.0°C (81°F)
Dewpoint: 23.0°C (73°F) [RH = 79%]
Pressure (altimeter): 29.56 inches Hg (1001.0 mb)
Winds: from the SE (130 degrees) at 5 MPH (4 knots; 2.1 m/s)
Visibility: 6 or more miles (10+ km)
Ceiling: 2000 feet AGL
Clouds: broken clouds at 2000 feet AGL
Weather: no significant weather observed at this time

METAR text: UHWW 230230Z VRB01MPS 9999 BKN016 26/22 Q1001 R25L/0///70 NOSIG RMK QFE750
Conditions at: UHWW (VLADIVOSTOK , RU) observed 0230 UTC 23 July 2019
Temperature: 26.0°C (79°F)
Dewpoint: 22.0°C (72°F) [RH = 79%]
Pressure (altimeter): 29.56 inches Hg (1001.0 mb)
Winds: variable direction winds at 2 MPH (2 knots; 1.0 m/s)
Visibility: 6 or more miles (10+ km)
Ceiling: 1600 feet AGL
Clouds: broken clouds at 1600 feet AGL
Weather: no significant weather observed at this time

METAR text: UHWW 230200Z 07002MPS 9999 OVC010 25/22 Q1002 R25L/0///70 NOSIG RMK QFE750
Conditions at: UHWW (VLADIVOSTOK , RU) observed 0200 UTC 23 July 2019
Temperature: 25.0°C (77°F)
Dewpoint: 22.0°C (72°F) [RH = 83%]
Pressure (altimeter): 29.59 inches Hg (1002.0 mb)
Winds: from the ENE (70 degrees) at 5 MPH (4 knots; 2.1 m/s)
Visibility: 6 or more miles (10+ km)
Ceiling: 1000 feet AGL
Clouds: overcast cloud deck at 1000 feet AGL
Weather: no significant weather observed at this time

METAR text: UHWW 230130Z VRB01MPS 9999 OVC010 24/22 Q1002 R25L/0///70 NOSIG RMK QFE750
Conditions at: UHWW (VLADIVOSTOK , RU) observed 0130 UTC 23 July 2019
Temperature: 24.0°C (75°F)
Dewpoint: 22.0°C (72°F) [RH = 89%]
Pressure (altimeter): 29.59 inches Hg (1002.0 mb)
Winds: variable direction winds at 2 MPH (2 knots; 1.0 m/s)
Visibility: 6 or more miles (10+ km)
Ceiling: 1000 feet AGL
Clouds: overcast cloud deck at 1000 feet AGL
Weather: no significant weather observed at this time

METAR text: UHWW 230100Z VRB01MPS 9999 OVC006 23/22 Q1002 R25L/0///70 NOSIG RMK MT OBSC QFE750
Conditions at: UHWW (VLADIVOSTOK , RU) observed 0100 UTC 23 July 2019
Temperature: 23.0°C (73°F)
Dewpoint: 22.0°C (72°F) [RH = 94%]
Pressure (altimeter): 29.59 inches Hg (1002.0 mb)
Winds: variable direction winds at 2 MPH (2 knots; 1.0 m/s)
Visibility: 6 or more miles (10+ km)
Ceiling: 600 feet AGL
Clouds: overcast cloud deck at 600 feet AGL
Weather: no significant weather observed at this time

METAR text: UHWW 230030Z VRB01MPS 9999 OVC006 23/22 Q1002 R25L/0///70 NOSIG RMK MT OBSC QFE750
Conditions at: UHWW (VLADIVOSTOK , RU) observed 0030 UTC 23 July 2019
Temperature: 23.0°C (73°F)
Dewpoint: 22.0°C (72°F) [RH = 94%]
Pressure (altimeter): 29.59 inches Hg (1002.0 mb)
Winds: variable direction winds at 2 MPH (2 knots; 1.0 m/s)
Visibility: 6 or more miles (10+ km)
Ceiling: 600 feet AGL
Clouds: overcast cloud deck at 600 feet AGL
Weather: no significant weather observed at this time

METAR text: UHWW 230000Z 00000MPS 9999 OVC005 22/22 Q1002 R25L/0///70 NOSIG RMK QBB150 MT OBSC QFE750
Conditions at: UHWW (VLADIVOSTOK , RU) observed 0000 UTC 23 July 2019
Temperature: 22.0°C (72°F)
Dewpoint: 22.0°C (72°F) [RH = 100%]
Pressure (altimeter): 29.59 inches Hg (1002.0 mb)
Winds: calm
Visibility: 6 or more miles (10+ km)
Ceiling: 500 feet AGL
Clouds: overcast cloud deck at 500 feet AGL
Weather: no significant weather observed at this time

METAR text: UHWW 222330Z 00000MPS 6000 OVC004 21/21 Q1002 R25L/0///70 NOSIG RMK QBB120 MT OBSC QFE750
Conditions at: UHWW (VLADIVOSTOK , RU) observed 2330 UTC 22 July 2019
Temperature: 21.0°C (70°F)
Dewpoint: 21.0°C (70°F) [RH = 100%]
Pressure (altimeter): 29.59 inches Hg (1002.0 mb)
Winds: calm
Visibility: 4 miles ( 6 km)
Ceiling: 400 feet AGL
Clouds: overcast cloud deck at 400 feet AGL
Weather: no significant weather observed at this time

METAR text: UHWW 222300Z 27001MPS 2100 R25L/1900U BR OVC003 21/21 Q1002 R25L/19//65 BECMG BKN004 RMK QBB090 MT OBSC QFE750
Conditions at: UHWW (VLADIVOSTOK , RU) observed 2300 UTC 22 July 2019
Temperature: 21.0°C (70°F)
Dewpoint: 21.0°C (70°F) [RH = 100%]
Pressure (altimeter): 29.59 inches Hg (1002.0 mb)
Winds: from the W (270 degrees) at 2 MPH (2 knots; 1.0 m/s)
Visibility: 1.30 miles (2.09 km)
Ceiling: 300 feet AGL
Clouds: overcast cloud deck at 300 feet AGL
Weather: BR  (mist)

METAR text: UHWW 222230Z VRB01MPS 1000 0750E R25L/0750N FG OVC002 21/21 Q1002 R25L/19//65 BECMG 1000 BR BKN003 RMK QBB080 MT OBSC QFE750
Conditions at: UHWW (VLADIVOSTOK , RU) observed 2230 UTC 22 July 2019
Temperature: 21.0°C (70°F)
Dewpoint: 21.0°C (70°F) [RH = 100%]
Pressure (altimeter): 29.59 inches Hg (1002.0 mb)
Winds: variable direction winds at 2 MPH (2 knots; 1.0 m/s)
Visibility: 0.62 miles (1.00 km)
Ceiling: 200 feet AGL
Clouds: overcast cloud deck at 200 feet AGL
Weather: FG  (fog)

METAR text: UHWW 222200Z 15001MPS 0300 0250E R25L/0300N FG VV002 20/20 Q1002 R25L/19//65 NOSIG RMK QBB060 MT OBSC QFE750
Conditions at: UHWW (VLADIVOSTOK , RU) observed 2200 UTC 22 July 2019
Temperature: 20.0°C (68°F)
Dewpoint: 20.0°C (68°F) [RH = 100%]
Pressure (altimeter): 29.59 inches Hg (1002.0 mb)
Winds: from the SSE (150 degrees) at 2 MPH (2 knots; 1.0 m/s)
Visibility: 0.19 miles (0.31 km)
Ceiling: indefinite ceiling with vertical visibility of 200 feet AGL
Clouds: obscured sky
Weather: FG  (fog)

METAR text: UHWW 222130Z 00000MPS 0300 R25L/0600U FG VV002 20/20 Q1002 R25L/19//65 NOSIG RMK QBB060 MT OBSC QFE750
Conditions at: UHWW (VLADIVOSTOK , RU) observed 2130 UTC 22 July 2019
Temperature: 20.0°C (68°F)
Dewpoint: 20.0°C (68°F) [RH = 100%]
Pressure (altimeter): 29.59 inches Hg (1002.0 mb)
Winds: calm
Visibility: 0.19 miles (0.31 km)
Ceiling: indefinite ceiling with vertical visibility of 200 feet AGL
Clouds: obscured sky
Weather: FG  (fog)

METAR text: UHWW 222100Z 00000MPS 0450 0350W R25L/0700D FG VV002 20/20 Q1002 R25L/19//65 NOSIG RMK QBB060 MT OBSC QFE750
Conditions at: UHWW (VLADIVOSTOK , RU) observed 2100 UTC 22 July 2019
Temperature: 20.0°C (68°F)
Dewpoint: 20.0°C (68°F) [RH = 100%]
Pressure (altimeter): 29.59 inches Hg (1002.0 mb)
Winds: calm
Visibility: 0.28 miles (0.45 km)
Ceiling: indefinite ceiling with vertical visibility of 200 feet AGL
Clouds: obscured sky
Weather: FG  (fog)

METAR text: UHWW 222030Z 24001MPS 0600 0350W R25L/1100D FG VV002 20/20 Q1002 R25L/290060 NOSIG RMK QBB060 MT OBSC QFE750
Conditions at: UHWW (VLADIVOSTOK , RU) observed 2030 UTC 22 July 2019
Temperature: 20.0°C (68°F)
Dewpoint: 20.0°C (68°F) [RH = 100%]
Pressure (altimeter): 29.59 inches Hg (1002.0 mb)
Winds: from the WSW (240 degrees) at 2 MPH (2 knots; 1.0 m/s)
Visibility: 0.37 miles (0.60 km)
Ceiling: indefinite ceiling with vertical visibility of 200 feet AGL
Clouds: obscured sky
Weather: FG  (fog)

METAR text: UHWW 222000Z 10001MPS 0500 0250W R25L/1900D FG VV002 20/20 Q1002 R25L/290060 NOSIG RMK QBB060 MT OBSC QFE750
Conditions at: UHWW (VLADIVOSTOK , RU) observed 2000 UTC 22 July 2019
Temperature: 20.0°C (68°F)
Dewpoint: 20.0°C (68°F) [RH = 100%]
Pressure (altimeter): 29.59 inches Hg (1002.0 mb)
Winds: from the E (100 degrees) at 2 MPH (2 knots; 1.0 m/s)
Visibility: 0.31 miles (0.50 km)
Ceiling: indefinite ceiling with vertical visibility of 200 feet AGL
Clouds: obscured sky
Weather: FG  (fog)

METAR text: UHWW 221930Z 00000MPS 0250 0150W R25L/0600D FG VV002 20/20 Q1002 R25L/290060 NOSIG RMK QBB060 MT OBSC QFE750
Conditions at: UHWW (VLADIVOSTOK , RU) observed 1930 UTC 22 July 2019
Temperature: 20.0°C (68°F)
Dewpoint: 20.0°C (68°F) [RH = 100%]
Pressure (altimeter): 29.59 inches Hg (1002.0 mb)
Winds: calm
Visibility: 0.16 miles (0.26 km)
Ceiling: indefinite ceiling with vertical visibility of 200 feet AGL
Clouds: obscured sky
Weather: FG  (fog)

METAR text: UHWW 221900Z VRB01MPS 0200 R25L/1200U FG VV002 20/20 Q1001 R25L/290060 NOSIG RMK QBB060 MT OBSC QFE750
Conditions at: UHWW (VLADIVOSTOK , RU) observed 1900 UTC 22 July 2019
Temperature: 20.0°C (68°F)
Dewpoint: 20.0°C (68°F) [RH = 100%]
Pressure (altimeter): 29.56 inches Hg (1001.0 mb)
Winds: variable direction winds at 2 MPH (2 knots; 1.0 m/s)
Visibility: 0.12 miles (0.19 km)
Ceiling: indefinite ceiling with vertical visibility of 200 feet AGL
Clouds: obscured sky
Weather: FG  (fog)

METAR text: UHWW 221830Z 24001MPS 8000 3200W BR OVC002 20/20 Q1001 R25L/290060 TEMPO 0300 FG VV002 RMK QBB070 MT OBSC QFE750
Conditions at: UHWW (VLADIVOSTOK , RU) observed 1830 UTC 22 July 2019
Temperature: 20.0°C (68°F)
Dewpoint: 20.0°C (68°F) [RH = 100%]
Pressure (altimeter): 29.56 inches Hg (1001.0 mb)
Winds: from the WSW (240 degrees) at 2 MPH (2 knots; 1.0 m/s)
Visibility: 5 miles ( 8 km)
Ceiling: 200 feet AGL
Clouds: overcast cloud deck at 200 feet AGL
Weather: BR  (mist)

METAR text: UHWW 221800Z 00000MPS 9999 OVC003 20/20 Q1001 R25L/290060 TEMPO 0300 FG VV002 RMK QBB090 MT OBSC QFE749
Conditions at: UHWW (VLADIVOSTOK , RU) observed 1800 UTC 22 July 2019
Temperature: 20.0°C (68°F)
Dewpoint: 20.0°C (68°F) [RH = 100%]
Pressure (altimeter): 29.56 inches Hg (1001.0 mb)
Winds: calm
Visibility: 6 or more miles (10+ km)
Ceiling: 300 feet AGL
Clouds: overcast cloud deck at 300 feet AGL
Weather: no significant weather observed at this time

METAR text: UHWW 221730Z 00000MPS 8000 BKN003 BKN020CB 20/20 Q1001 R25L/290060 TEMPO 0300 FG VV002 RMK QBB100 MT OBSC QFE749
Conditions at: UHWW (VLADIVOSTOK , RU) observed 1730 UTC 22 July 2019
Temperature: 20.0°C (68°F)
Dewpoint: 20.0°C (68°F) [RH = 100%]
Pressure (altimeter): 29.56 inches Hg (1001.0 mb)
Winds: calm
Visibility: 5 miles ( 8 km)
Ceiling: 300 feet AGL
Clouds: broken clouds at 300 feet AGL
broken clouds at 2000 feet AGL
Weather: no significant weather observed at this time

METAR text: UHWW 221700Z 25001MPS 4200 -SHRA BR BKN003 BKN020CB 20/20 Q1001 R25L/290060 TEMPO 0300 FG VV002 RMK QBB100 MT OBSC QFE749
Conditions at: UHWW (VLADIVOSTOK , RU) observed 1700 UTC 22 July 2019
Temperature: 20.0°C (68°F)
Dewpoint: 20.0°C (68°F) [RH = 100%]
Pressure (altimeter): 29.56 inches Hg (1001.0 mb)
Winds: from the WSW (250 degrees) at 2 MPH (2 knots; 1.0 m/s)
Visibility: 2.61 miles (4.20 km)
Ceiling: 300 feet AGL
Clouds: broken clouds at 300 feet AGL
broken clouds at 2000 feet AGL
Weather: -SHRA BR  (light rain showers, mist)

METAR text: UHWW 221630Z 19001MPS 4300 -SHRA BR BKN003 BKN020CB 20/20 Q1001 R25L/290060 NOSIG RMK QBB100 MT OBSC QFE750
Conditions at: UHWW (VLADIVOSTOK , RU) observed 1630 UTC 22 July 2019
Temperature: 20.0°C (68°F)
Dewpoint: 20.0°C (68°F) [RH = 100%]
Pressure (altimeter): 29.56 inches Hg (1001.0 mb)
Winds: from the S (190 degrees) at 2 MPH (2 knots; 1.0 m/s)
Visibility: 2.67 miles (4.30 km)
Ceiling: 300 feet AGL
Clouds: broken clouds at 300 feet AGL
broken clouds at 2000 feet AGL
Weather: -SHRA BR  (light rain showers, mist)

METAR text: UHWW 221600Z 25002MPS 3300 -SHRA BR BKN004 BKN020CB 20/20 Q1001 R25L/0///70 NOSIG RMK QBB120 MT OBSC QFE750
Conditions at: UHWW (VLADIVOSTOK , RU) observed 1600 UTC 22 July 2019
Temperature: 20.0°C (68°F)
Dewpoint: 20.0°C (68°F) [RH = 100%]
Pressure (altimeter): 29.56 inches Hg (1001.0 mb)
Winds: from the WSW (250 degrees) at 5 MPH (4 knots; 2.1 m/s)
Visibility: 2.05 miles (3.30 km)
Ceiling: 400 feet AGL
Clouds: broken clouds at 400 feet AGL
broken clouds at 2000 feet AGL
Weather: -SHRA BR  (light rain showers, mist)

METAR text: UHWW 221530Z 24003MPS 6000 -SHRA BKN004 BKN020CB 20/20 Q1001 R25L/0///70 NOSIG RMK QBB140 MT OBSC QFE750
Conditions at: UHWW (VLADIVOSTOK , RU) observed 1530 UTC 22 July 2019
Temperature: 20.0°C (68°F)
Dewpoint: 20.0°C (68°F) [RH = 100%]
Pressure (altimeter): 29.56 inches Hg (1001.0 mb)
Winds: from the WSW (240 degrees) at 7 MPH (6 knots; 3.1 m/s)
Visibility: 4 miles ( 6 km)
Ceiling: 400 feet AGL
Clouds: broken clouds at 400 feet AGL
broken clouds at 2000 feet AGL
Weather: -SHRA  (light rain showers)

METAR text: UHWW 221500Z 24003MPS 8000 -SHRA BKN004 BKN020CB 20/20 Q1001 R25L/0///70 NOSIG RMK QBB120 MT OBSC QFE750
Conditions at: UHWW (VLADIVOSTOK , RU) observed 1500 UTC 22 July 2019
Temperature: 20.0°C (68°F)
Dewpoint: 20.0°C (68°F) [RH = 100%]
Pressure (altimeter): 29.56 inches Hg (1001.0 mb)
Winds: from the WSW (240 degrees) at 7 MPH (6 knots; 3.1 m/s)
Visibility: 5 miles ( 8 km)
Ceiling: 400 feet AGL
Clouds: broken clouds at 400 feet AGL
broken clouds at 2000 feet AGL
Weather: -SHRA  (light rain showers)

METAR text: UHWW 221430Z 25003MPS 9000 BKN004 20/20 Q1001 R25L/0///70 NOSIG RMK QBB120 MT OBSC QFE750
Conditions at: UHWW (VLADIVOSTOK , RU) observed 1430 UTC 22 July 2019
Temperature: 20.0°C (68°F)
Dewpoint: 20.0°C (68°F) [RH = 100%]
Pressure (altimeter): 29.56 inches Hg (1001.0 mb)
Winds: from the WSW (250 degrees) at 7 MPH (6 knots; 3.1 m/s)
Visibility: 6 miles ( 9 km)
Ceiling: 400 feet AGL
Clouds: broken clouds at 400 feet AGL
Weather: no significant weather observed at this time

METAR text: UHWW 221400Z 26002MPS 9000 BKN004 20/20 Q1001 R25L/0///70 NOSIG RMK QBB120 MT OBSC QFE750
Conditions at: UHWW (VLADIVOSTOK , RU) observed 1400 UTC 22 July 2019
Temperature: 20.0°C (68°F)
Dewpoint: 20.0°C (68°F) [RH = 100%]
Pressure (altimeter): 29.56 inches Hg (1001.0 mb)
Winds: from the W (260 degrees) at 5 MPH (4 knots; 2.1 m/s)
Visibility: 6 miles ( 9 km)
Ceiling: 400 feet AGL
Clouds: broken clouds at 400 feet AGL
Weather: no significant weather observed at this time

METAR text: UHWW 221330Z 25003MPS 9999 BKN004 20/20 Q1001 R25L/0///70 NOSIG RMK QBB120 MT OBSC QFE750
Conditions at: UHWW (VLADIVOSTOK , RU) observed 1330 UTC 22 July 2019
Temperature: 20.0°C (68°F)
Dewpoint: 20.0°C (68°F) [RH = 100%]
Pressure (altimeter): 29.56 inches Hg (1001.0 mb)
Winds: from the WSW (250 degrees) at 7 MPH (6 knots; 3.1 m/s)
Visibility: 6 or more miles (10+ km)
Ceiling: 400 feet AGL
Clouds: broken clouds at 400 feet AGL
Weather: no significant weather observed at this time

METAR text: UHWW 221300Z 24003MPS 9000 OVC004 21/21 Q1001 R25L/0///70 NOSIG RMK QBB120 MT OBSC QFE750
Conditions at: UHWW (VLADIVOSTOK , RU) observed 1300 UTC 22 July 2019
Temperature: 21.0°C (70°F)
Dewpoint: 21.0°C (70°F) [RH = 100%]
Pressure (altimeter): 29.56 inches Hg (1001.0 mb)
Winds: from the WSW (240 degrees) at 7 MPH (6 knots; 3.1 m/s)
Visibility: 6 miles ( 9 km)
Ceiling: 400 feet AGL
Clouds: overcast cloud deck at 400 feet AGL
Weather: no significant weather observed at this time

METAR text: UHWW 221230Z 23005MPS 8000 OVC004 21/21 Q1001 R25L/0///70 NOSIG RMK QBB120 MT OBSC QFE749
Conditions at: UHWW (VLADIVOSTOK , RU) observed 1230 UTC 22 July 2019
Temperature: 21.0°C (70°F)
Dewpoint: 21.0°C (70°F) [RH = 100%]
Pressure (altimeter): 29.56 inches Hg (1001.0 mb)
Winds: from the SW (230 degrees) at 12 MPH (10 knots; 5.1 m/s)
Visibility: 5 miles ( 8 km)
Ceiling: 400 feet AGL
Clouds: overcast cloud deck at 400 feet AGL
Weather: no significant weather observed at this time

METAR text: UHWW 221200Z 23004MPS 9999 SCT006 BKN016 21/21 Q1001 R25L/0///70 NOSIG RMK QFE749
Conditions at: UHWW (VLADIVOSTOK , RU) observed 1200 UTC 22 July 2019
Temperature: 21.0°C (70°F)
Dewpoint: 21.0°C (70°F) [RH = 100%]
Pressure (altimeter): 29.56 inches Hg (1001.0 mb)
Winds: from the SW (230 degrees) at 9 MPH (8 knots; 4.1 m/s)
Visibility: 6 or more miles (10+ km)
Ceiling: 1600 feet AGL
Clouds: scattered clouds at 600 feet AGL
broken clouds at 1600 feet AGL
Weather: no significant weather observed at this time

METAR text: UHWW 221130Z 24004MPS 9999 FEW006 SCT023 21/21 Q1000 R07R/0///70 NOSIG RMK QFE749
Conditions at: UHWW (VLADIVOSTOK , RU) observed 1130 UTC 22 July 2019
Temperature: 21.0°C (70°F)
Dewpoint: 21.0°C (70°F) [RH = 100%]
Pressure (altimeter): 29.53 inches Hg (1000.0 mb)
Winds: from the WSW (240 degrees) at 9 MPH (8 knots; 4.1 m/s)
Visibility: 6 or more miles (10+ km)
Ceiling: at least 12,000 feet AGL
Clouds: few clouds at 600 feet AGL
scattered clouds at 2300 feet AGL
Weather: no significant weather observed at this time

METAR text: UHWW 221100Z 24003MPS 9999 SCT033 22/21 Q1000 R25L/0///70 NOSIG RMK QFE749
Conditions at: UHWW (VLADIVOSTOK , RU) observed 1100 UTC 22 July 2019
Temperature: 22.0°C (72°F)
Dewpoint: 21.0°C (70°F) [RH = 94%]
Pressure (altimeter): 29.53 inches Hg (1000.0 mb)
Winds: from the WSW (240 degrees) at 7 MPH (6 knots; 3.1 m/s)
Visibility: 6 or more miles (10+ km)
Ceiling: at least 12,000 feet AGL
Clouds: scattered clouds at 3300 feet AGL
Weather: no significant weather observed at this time

METAR text: UHWW 221030Z 23004MPS 9999 SCT033 22/21 Q1000 R25L/0///70 NOSIG RMK QFE748
Conditions at: UHWW (VLADIVOSTOK , RU) observed 1030 UTC 22 July 2019
Temperature: 22.0°C (72°F)
Dewpoint: 21.0°C (70°F) [RH = 94%]
Pressure (altimeter): 29.53 inches Hg (1000.0 mb)
Winds: from the SW (230 degrees) at 9 MPH (8 knots; 4.1 m/s)
Visibility: 6 or more miles (10+ km)
Ceiling: at least 12,000 feet AGL
Clouds: scattered clouds at 3300 feet AGL
Weather: no significant weather observed at this time

METAR text: UHWW 221000Z 24004MPS 9999 SCT033 22/21 Q0999 R25L/0///70 NOSIG RMK QFE748
Conditions at: UHWW (VLADIVOSTOK , RU) observed 1000 UTC 22 July 2019
Temperature: 22.0°C (72°F)
Dewpoint: 21.0°C (70°F) [RH = 94%]
Pressure (altimeter): 29.50 inches Hg (999.0 mb)
Winds: from the WSW (240 degrees) at 9 MPH (8 knots; 4.1 m/s)
Visibility: 6 or more miles (10+ km)
Ceiling: at least 12,000 feet AGL
Clouds: scattered clouds at 3300 feet AGL
Weather: no significant weather observed at this time

METAR text: UHWW 220930Z 24003MPS 9999 FEW016 23/21 Q0999 R25L/0///70 NOSIG RMK QFE748
Conditions at: UHWW (VLADIVOSTOK , RU) observed 0930 UTC 22 July 2019
Temperature: 23.0°C (73°F)
Dewpoint: 21.0°C (70°F) [RH = 89%]
Pressure (altimeter): 29.50 inches Hg (999.0 mb)
Winds: from the WSW (240 degrees) at 7 MPH (6 knots; 3.1 m/s)
Visibility: 6 or more miles (10+ km)
Ceiling: at least 12,000 feet AGL
Clouds: few clouds at 1600 feet AGL
Weather: no significant weather observed at this time

METAR text: UHWW 220900Z 25002MPS 9999 SCT020 24/22 Q0999 R25L/0///70 NOSIG RMK QFE748
Conditions at: UHWW (VLADIVOSTOK , RU) observed 0900 UTC 22 July 2019
Temperature: 24.0°C (75°F)
Dewpoint: 22.0°C (72°F) [RH = 89%]
Pressure (altimeter): 29.50 inches Hg (999.0 mb)
Winds: from the WSW (250 degrees) at 5 MPH (4 knots; 2.1 m/s)
Visibility: 6 or more miles (10+ km)
Ceiling: at least 12,000 feet AGL
Clouds: scattered clouds at 2000 feet AGL
Weather: no significant weather observed at this time

METAR text: UHWW 220830Z 25003MPS 9999 SCT015 24/22 Q0999 R25L/0///70 NOSIG RMK QFE748
Conditions at: UHWW (VLADIVOSTOK , RU) observed 0830 UTC 22 July 2019
Temperature: 24.0°C (75°F)
Dewpoint: 22.0°C (72°F) [RH = 89%]
Pressure (altimeter): 29.50 inches Hg (999.0 mb)
Winds: from the WSW (250 degrees) at 7 MPH (6 knots; 3.1 m/s)
Visibility: 6 or more miles (10+ km)
Ceiling: at least 12,000 feet AGL
Clouds: scattered clouds at 1500 feet AGL
Weather: no significant weather observed at this time

METAR text: UHWW 220800Z 27002MPS 9999 BKN030CB 24/22 Q0998 R25L/0///70 NOSIG RMK QFE748
Conditions at: UHWW (VLADIVOSTOK , RU) observed 0800 UTC 22 July 2019
Temperature: 24.0°C (75°F)
Dewpoint: 22.0°C (72°F) [RH = 89%]
Pressure (altimeter): 29.47 inches Hg (998.0 mb)
Winds: from the W (270 degrees) at 5 MPH (4 knots; 2.1 m/s)
Visibility: 6 or more miles (10+ km)
Ceiling: 3000 feet AGL
Clouds: broken clouds at 3000 feet AGL
Weather: no significant weather observed at this time

METAR text: UHWW 220730Z 27003MPS 9999 BKN030CB 24/21 Q0998 R25L/0///70 NOSIG RMK QFE748
Conditions at: UHWW (VLADIVOSTOK , RU) observed 0730 UTC 22 July 2019
Temperature: 24.0°C (75°F)
Dewpoint: 21.0°C (70°F) [RH = 83%]
Pressure (altimeter): 29.47 inches Hg (998.0 mb)
Winds: from the W (270 degrees) at 7 MPH (6 knots; 3.1 m/s)
Visibility: 6 or more miles (10+ km)
Ceiling: 3000 feet AGL
Clouds: broken clouds at 3000 feet AGL
Weather: no significant weather observed at this time

METAR text: UHWW 220700Z 25003MPS 9999 BKN030CB 23/21 Q0998 R25L/0///70 NOSIG RMK QFE748
Conditions at: UHWW (VLADIVOSTOK , RU) observed 0700 UTC 22 July 2019
Temperature: 23.0°C (73°F)
Dewpoint: 21.0°C (70°F) [RH = 89%]
Pressure (altimeter): 29.47 inches Hg (998.0 mb)
Winds: from the WSW (250 degrees) at 7 MPH (6 knots; 3.1 m/s)
Visibility: 6 or more miles (10+ km)
Ceiling: 3000 feet AGL
Clouds: broken clouds at 3000 feet AGL
Weather: no significant weather observed at this time

METAR text: UHWW 220630Z 27004MPS 9999 BKN023CB 23/21 Q0998 R25L/0///70 NOSIG RMK QFE748
Conditions at: UHWW (VLADIVOSTOK , RU) observed 0630 UTC 22 July 2019
Temperature: 23.0°C (73°F)
Dewpoint: 21.0°C (70°F) [RH = 89%]
Pressure (altimeter): 29.47 inches Hg (998.0 mb)
Winds: from the W (270 degrees) at 9 MPH (8 knots; 4.1 m/s)
Visibility: 6 or more miles (10+ km)
Ceiling: 2300 feet AGL
Clouds: broken clouds at 2300 feet AGL
Weather: no significant weather observed at this time

METAR text: UHWW 220600Z 25005MPS 9999 BKN023CB 24/22 Q0998 R25L/0///70 NOSIG RMK QFE747
Conditions at: UHWW (VLADIVOSTOK , RU) observed 0600 UTC 22 July 2019
Temperature: 24.0°C (75°F)
Dewpoint: 22.0°C (72°F) [RH = 89%]
Pressure (altimeter): 29.47 inches Hg (998.0 mb)
Winds: from the WSW (250 degrees) at 12 MPH (10 knots; 5.1 m/s)
Visibility: 6 or more miles (10+ km)
Ceiling: 2300 feet AGL
Clouds: broken clouds at 2300 feet AGL
Weather: no significant weather observed at this time

METAR text: UHWW 220530Z 24006MPS 9999 BKN023CB 24/22 Q0998 R25L/0///70 NOSIG RMK QFE747
Conditions at: UHWW (VLADIVOSTOK , RU) observed 0530 UTC 22 July 2019
Temperature: 24.0°C (75°F)
Dewpoint: 22.0°C (72°F) [RH = 89%]
Pressure (altimeter): 29.47 inches Hg (998.0 mb)
Winds: from the WSW (240 degrees) at 14 MPH (12 knots; 6.2 m/s)
Visibility: 6 or more miles (10+ km)
Ceiling: 2300 feet AGL
Clouds: broken clouds at 2300 feet AGL
Weather: no significant weather observed at this time

METAR text: UHWW 220500Z 26004MPS 9999 BKN013 BKN033CB 23/22 Q0998 R25L/0///70 NOSIG RMK QFE747
Conditions at: UHWW (VLADIVOSTOK , RU) observed 0500 UTC 22 July 2019
Temperature: 23.0°C (73°F)
Dewpoint: 22.0°C (72°F) [RH = 94%]
Pressure (altimeter): 29.47 inches Hg (998.0 mb)
Winds: from the W (260 degrees) at 9 MPH (8 knots; 4.1 m/s)
Visibility: 6 or more miles (10+ km)
Ceiling: 1300 feet AGL
Clouds: broken clouds at 1300 feet AGL
broken clouds at 3300 feet AGL
Weather: no significant weather observed at this time

METAR text: UHWW 220430Z 21004MPS 9999 BKN013 BKN033CB 23/21 Q0998 R25L/0///70 NOSIG RMK QFE747
Conditions at: UHWW (VLADIVOSTOK , RU) observed 0430 UTC 22 July 2019
Temperature: 23.0°C (73°F)
Dewpoint: 21.0°C (70°F) [RH = 89%]
Pressure (altimeter): 29.47 inches Hg (998.0 mb)
Winds: from the SSW (210 degrees) at 9 MPH (8 knots; 4.1 m/s)
Visibility: 6 or more miles (10+ km)
Ceiling: 1300 feet AGL
Clouds: broken clouds at 1300 feet AGL
broken clouds at 3300 feet AGL
Weather: no significant weather observed at this time

METAR text: UHWW 220400Z 18004MPS 9999 BKN013 BKN033CB 23/21 Q0998 R25L/0///70 NOSIG RMK QFE747
Conditions at: UHWW (VLADIVOSTOK , RU) observed 0400 UTC 22 July 2019
Temperature: 23.0°C (73°F)
Dewpoint: 21.0°C (70°F) [RH = 89%]
Pressure (altimeter): 29.47 inches Hg (998.0 mb)
Winds: from the S (180 degrees) at 9 MPH (8 knots; 4.1 m/s)
Visibility: 6 or more miles (10+ km)
Ceiling: 1300 feet AGL
Clouds: broken clouds at 1300 feet AGL
broken clouds at 3300 feet AGL
Weather: no significant weather observed at this time

METAR text: UHWW 220330Z 17005MPS 9999 BKN013 BKN033CB 24/21 Q0998 R25L/0///70 NOSIG RMK QFE747
Conditions at: UHWW (VLADIVOSTOK , RU) observed 0330 UTC 22 July 2019
Temperature: 24.0°C (75°F)
Dewpoint: 21.0°C (70°F) [RH = 83%]
Pressure (altimeter): 29.47 inches Hg (998.0 mb)
Winds: from the S (170 degrees) at 12 MPH (10 knots; 5.1 m/s)
Visibility: 6 or more miles (10+ km)
Ceiling: 1300 feet AGL
Clouds: broken clouds at 1300 feet AGL
broken clouds at 3300 feet AGL
Weather: no significant weather observed at this time

METAR text: UHWW 220300Z 16006MPS 9999 SCT008 BKN026CB 24/21 Q0998 R25L/220158 NOSIG RMK QFE747
Conditions at: UHWW (VLADIVOSTOK , RU) observed 0300 UTC 22 July 2019
Temperature: 24.0°C (75°F)
Dewpoint: 21.0°C (70°F) [RH = 83%]
Pressure (altimeter): 29.47 inches Hg (998.0 mb)
Winds: from the SSE (160 degrees) at 14 MPH (12 knots; 6.2 m/s)
Visibility: 6 or more miles (10+ km)
Ceiling: 2600 feet AGL
Clouds: scattered clouds at 800 feet AGL
broken clouds at 2600 feet AGL
Weather: no significant weather observed at this time

METAR text: UHWW 220230Z 17004MPS 9999 BKN010 BKN026CB 23/22 Q0998 R25L/220158 NOSIG RMK QFE747
Conditions at: UHWW (VLADIVOSTOK , RU) observed 0230 UTC 22 July 2019
Temperature: 23.0°C (73°F)
Dewpoint: 22.0°C (72°F) [RH = 94%]
Pressure (altimeter): 29.47 inches Hg (998.0 mb)
Winds: from the S (170 degrees) at 9 MPH (8 knots; 4.1 m/s)
Visibility: 6 or more miles (10+ km)
Ceiling: 1000 feet AGL
Clouds: broken clouds at 1000 feet AGL
broken clouds at 2600 feet AGL
Weather: no significant weather observed at this time

METAR text: UHWW 220200Z 15004MPS 9999 SCT008 BKN026CB 22/22 Q0997 R25L/220158 NOSIG RMK QFE747
Conditions at: UHWW (VLADIVOSTOK , RU) observed 0200 UTC 22 July 2019
Temperature: 22.0°C (72°F)
Dewpoint: 22.0°C (72°F) [RH = 100%]
Pressure (altimeter): 29.44 inches Hg (997.0 mb)
Winds: from the SSE (150 degrees) at 9 MPH (8 knots; 4.1 m/s)
Visibility: 6 or more miles (10+ km)
Ceiling: 2600 feet AGL
Clouds: scattered clouds at 800 feet AGL
broken clouds at 2600 feet AGL
Weather: no significant weather observed at this time

METAR text: UHWW 220130Z 14004MPS 9000 SCT008 BKN020CB 22/22 Q0997 R25L/220158 NOSIG RMK QFE747
Conditions at: UHWW (VLADIVOSTOK , RU) observed 0130 UTC 22 July 2019
Temperature: 22.0°C (72°F)
Dewpoint: 22.0°C (72°F) [RH = 100%]
Pressure (altimeter): 29.44 inches Hg (997.0 mb)
Winds: from the SE (140 degrees) at 9 MPH (8 knots; 4.1 m/s)
Visibility: 6 miles ( 9 km)
Ceiling: 2000 feet AGL
Clouds: scattered clouds at 800 feet AGL
broken clouds at 2000 feet AGL
Weather: no significant weather observed at this time

METAR text: UHWW 220100Z 12003MPS 7000 -SHRA SCT006 BKN020CB 22/22 Q0997 R25L/220158 NOSIG RMK QFE747
Conditions at: UHWW (VLADIVOSTOK , RU) observed 0100 UTC 22 July 2019
Temperature: 22.0°C (72°F)
Dewpoint: 22.0°C (72°F) [RH = 100%]
Pressure (altimeter): 29.44 inches Hg (997.0 mb)
Winds: from the ESE (120 degrees) at 7 MPH (6 knots; 3.1 m/s)
Visibility: 4 miles ( 7 km)
Ceiling: 2000 feet AGL
Clouds: scattered clouds at 600 feet AGL
broken clouds at 2000 feet AGL
Weather: -SHRA  (light rain showers)

METAR text: UHWW 220030Z 00000MPS 6000 -SHRA SCT006 BKN020CB 22/22 Q0997 R25L/220158 NOSIG RMK QFE747
Conditions at: UHWW (VLADIVOSTOK , RU) observed 0030 UTC 22 July 2019
Temperature: 22.0°C (72°F)
Dewpoint: 22.0°C (72°F) [RH = 100%]
Pressure (altimeter): 29.44 inches Hg (997.0 mb)
Winds: calm
Visibility: 4 miles ( 6 km)
Ceiling: 2000 feet AGL
Clouds: scattered clouds at 600 feet AGL
broken clouds at 2000 feet AGL
Weather: -SHRA  (light rain showers)

METAR text: UHWW 220000Z VRB01MPS 9999 -SHRA SCT006 BKN023CB 22/22 Q0997 R25L/220158 NOSIG RMK QFE747
Conditions at: UHWW (VLADIVOSTOK , RU) observed 0000 UTC 22 July 2019
Temperature: 22.0°C (72°F)
Dewpoint: 22.0°C (72°F) [RH = 100%]
Pressure (altimeter): 29.44 inches Hg (997.0 mb)
Winds: variable direction winds at 2 MPH (2 knots; 1.0 m/s)
Visibility: 6 or more miles (10+ km)
Ceiling: 2300 feet AGL
Clouds: scattered clouds at 600 feet AGL
broken clouds at 2300 feet AGL
Weather: -SHRA  (light rain showers)

METAR text: UHWW 212330Z 09002MPS 9000 -SHRA SCT006 BKN023CB 22/22 Q0997 R25L/220158 NOSIG RMK QFE747
Conditions at: UHWW (VLADIVOSTOK , RU) observed 2330 UTC 21 July 2019
Temperature: 22.0°C (72°F)
Dewpoint: 22.0°C (72°F) [RH = 100%]
Pressure (altimeter): 29.44 inches Hg (997.0 mb)
Winds: from the E (90 degrees) at 5 MPH (4 knots; 2.1 m/s)
Visibility: 6 miles ( 9 km)
Ceiling: 2300 feet AGL
Clouds: scattered clouds at 600 feet AGL
broken clouds at 2300 feet AGL
Weather: -SHRA  (light rain showers)

METAR text: UHWW 212300Z 13002MPS 100V170 9000 -SHRA SCT006 BKN023CB 22/22 Q0997 R25L/220158 NOSIG RMK QFE747
Conditions at: UHWW (VLADIVOSTOK , RU) observed 2300 UTC 21 July 2019
Temperature: 22.0°C (72°F)
Dewpoint: 22.0°C (72°F) [RH = 100%]
Pressure (altimeter): 29.44 inches Hg (997.0 mb)
Winds: from the SE (130 degrees) at 5 MPH (4 knots; 2.1 m/s)
Visibility: 6 miles ( 9 km)
Ceiling: 2300 feet AGL
Clouds: scattered clouds at 600 feet AGL
broken clouds at 2300 feet AGL
Weather: -SHRA  (light rain showers)

METAR text: UHWW 212230Z 12002MPS 8000 -SHRA BKN020CB 22/22 Q0997 R25L/220158 NOSIG RMK QFE747
Conditions at: UHWW (VLADIVOSTOK , RU) observed 2230 UTC 21 July 2019
Temperature: 22.0°C (72°F)
Dewpoint: 22.0°C (72°F) [RH = 100%]
Pressure (altimeter): 29.44 inches Hg (997.0 mb)
Winds: from the ESE (120 degrees) at 5 MPH (4 knots; 2.1 m/s)
Visibility: 5 miles ( 8 km)
Ceiling: 2000 feet AGL
Clouds: broken clouds at 2000 feet AGL
Weather: -SHRA  (light rain showers)

METAR text: UHWW 212200Z 12002MPS 8000 -SHRA SCT005 BKN020CB 21/21 Q0997 R25L/220158 NOSIG RMK QFE747
Conditions at: UHWW (VLADIVOSTOK , RU) observed 2200 UTC 21 July 2019
Temperature: 21.0°C (70°F)
Dewpoint: 21.0°C (70°F) [RH = 100%]
Pressure (altimeter): 29.44 inches Hg (997.0 mb)
Winds: from the ESE (120 degrees) at 5 MPH (4 knots; 2.1 m/s)
Visibility: 5 miles ( 8 km)
Ceiling: 2000 feet AGL
Clouds: scattered clouds at 500 feet AGL
broken clouds at 2000 feet AGL
Weather: -SHRA  (light rain showers)

METAR text: UHWW 212130Z 10003MPS 9000 -SHRA SCT004 BKN020CB 21/21 Q0997 R25L/220158 NOSIG RMK QFE747
Conditions at: UHWW (VLADIVOSTOK , RU) observed 2130 UTC 21 July 2019
Temperature: 21.0°C (70°F)
Dewpoint: 21.0°C (70°F) [RH = 100%]
Pressure (altimeter): 29.44 inches Hg (997.0 mb)
Winds: from the E (100 degrees) at 7 MPH (6 knots; 3.1 m/s)
Visibility: 6 miles ( 9 km)
Ceiling: 2000 feet AGL
Clouds: scattered clouds at 400 feet AGL
broken clouds at 2000 feet AGL
Weather: -SHRA  (light rain showers)

METAR text: UHWW 212100Z 09002MPS 6000 -SHRA SCT005 BKN020CB 21/21 Q0997 R25L/220158 NOSIG RMK QFE747
Conditions at: UHWW (VLADIVOSTOK , RU) observed 2100 UTC 21 July 2019
Temperature: 21.0°C (70°F)
Dewpoint: 21.0°C (70°F) [RH = 100%]
Pressure (altimeter): 29.44 inches Hg (997.0 mb)
Winds: from the E (90 degrees) at 5 MPH (4 knots; 2.1 m/s)
Visibility: 4 miles ( 6 km)
Ceiling: 2000 feet AGL
Clouds: scattered clouds at 500 feet AGL
broken clouds at 2000 feet AGL
Weather: -SHRA  (light rain showers)

Forecast for: UHWW (VLADIVOSTOK , RU)
Text: TAF UHWW 230800Z 2309/2409 24003MPS 9999 SCT030
Forecast period: 0900 to 1100 UTC 23 July 2019
Forecast type: FROM: standard forecast or significant change
Winds: from the WSW (240 degrees) at 7 MPH (6 knots; 3.1 m/s)
Visibility: 6 or more miles 10+ km)
Ceiling: at least 12,000 feet AGL
Clouds: scattered clouds at 3000 feet AGL
Weather: no significant weather forecast for this period
Text: FM231100 15003MPS 3100 -SHRA BR BKN011 BKN017CB
Forecast period: 1100 UTC 23 July 2019 to 0200 UTC 24 July 2019
Forecast type: FROM: standard forecast or significant change
Winds: from the SSE (150 degrees) at 7 MPH (6 knots; 3.1 m/s)
Visibility: 1.93 miles (3.11 km)
Ceiling: 1100 feet AGL
Clouds: broken clouds at 1100 feet AGL
broken clouds at 1700 feet AGL
Weather: -SHRA BR  (light rain showers, mist)
Text: TEMPO 2311/2401 BKN003 BKN013CB
Forecast period: 1100 UTC 23 July 2019 to 0100 UTC 24 July 2019
Forecast type: TEMPORARY: The following changes expected for less than half the time period
Visibility: missing
Ceiling: 300 feet AGL
Clouds: broken clouds at 300 feet AGL
broken clouds at 1300 feet AGL
Weather: no significant weather forecast for this period
Text: FM240200 25003MPS 9999 BKN020CB
Forecast period: 0200 to 0900 UTC 24 July 2019
Forecast type: FROM: standard forecast or significant change
Winds: from the WSW (250 degrees) at 7 MPH (6 knots; 3.1 m/s)
Visibility: 6 or more miles 10+ km)
Ceiling: 2000 feet AGL
Clouds: broken clouds at 2000 feet AGL
Weather: no significant weather forecast for this period
Text: TEMPO 2402/2409 5000 -SHRA BKN011 BKN017CB
Forecast period: 0200 to 0900 UTC 24 July 2019
Forecast type: TEMPORARY: The following changes expected for less than half the time period
Visibility: 3 miles (5 km)
Ceiling: 1100 feet AGL
Clouds: broken clouds at 1100 feet AGL
broken clouds at 1700 feet AGL
Weather: -SHRA  (light rain showers)